sensor_id;sensor_type;location;lat;lon;timestamp;pressure;altitude;pressure_sealevel;temperature;humidity
10510;BME280;5303;53.266;10.410;2023-03-04T00:00:56;101783.00;;;6.72;100.00
10510;BME280;5303;53.266;10.410;2023-03-04T00:03:21;101777.34;;;6.75;100.00
10510;BME280;5303;53.266;10.410;2023-03-04T00:05:46;101784.47;;;6.87;100.00
10510;BME280;5303;53.266;10.410;2023-03-04T00:08:12;101771.91;;;6.86;100.00
10510;BME280;5303;53.266;10.410;2023-03-04T00:10:37;101776.97;;;6.80;100.00
10510;BME280;5303;53.266;10.410;2023-03-04T00:13:02;101784.59;;;6.86;100.00
10510;BME280;5303;53.266;10.410;2023-03-04T00:15:28;101770.78;;;7.00;100.00
10510;BME280;5303;53.266;10.410;2023-03-04T00:17:53;101779.56;;;6.81;100.00
10510;BME280;5303;53.266;10.410;2023-03-04T00:20:18;101767.88;;;6.81;100.00
10510;BME280;5303;53.266;10.410;2023-03-04T00:22:43;101774.16;;;6.81;100.00
10510;BME280;5303;53.266;10.410;2023-03-04T00:25:09;101780.88;;;6.87;100.00
10510;BME280;5303;53.266;10.410;2023-03-04T00:27:34;101773.50;;;6.89;100.00
10510;BME280;5303;53.266;10.410;2023-03-04T00:29:59;101777.47;;;6.85;100.00
10510;BME280;5303;53.266;10.410;2023-03-04T00:32:24;101770.53;;;6.92;100.00
10510;BME280;5303;53.266;10.410;2023-03-04T00:34:50;101767.22;;;6.77;100.00
10510;BME280;5303;53.266;10.410;2023-03-04T00:37:15;101767.94;;;7.02;100.00
10510;BME280;5303;53.266;10.410;2023-03-04T00:39:40;101765.84;;;7.05;100.00
10510;BME280;5303;53.266;10.410;2023-03-04T00:42:06;101763.38;;;7.02;100.00
10510;BME280;5303;53.266;10.410;2023-03-04T00:44:31;101761.81;;;6.77;100.00
10510;BME280;5303;53.266;10.410;2023-03-04T00:46:56;101764.53;;;6.88;100.00
10510;BME280;5303;53.266;10.410;2023-03-04T00:49:22;101762.31;;;6.93;100.00
10510;BME280;5303;53.266;10.410;2023-03-04T00:51:47;101762.31;;;6.93;100.00
10510;BME280;5303;53.266;10.410;2023-03-04T00:54:12;101757.44;;;7.08;100.00
10510;BME280;5303;53.266;10.410;2023-03-04T00:56:38;101745.16;;;7.04;100.00
10510;BME280;5303;53.266;10.410;2023-03-04T00:59:04;101747.91;;;7.25;100.00
10510;BME280;5303;53.266;10.410;2023-03-04T01:01:29;101752.53;;;7.13;100.00
10510;BME280;5303;53.266;10.410;2023-03-04T01:03:54;101749.94;;;7.12;100.00
10510;BME280;5303;53.266;10.410;2023-03-04T01:06:20;101745.75;;;7.08;100.00
10510;BME280;5303;53.266;10.410;2023-03-04T01:08:45;101754.91;;;6.95;100.00
10510;BME280;5303;53.266;10.410;2023-03-04T01:11:11;101733.47;;;7.04;100.00
10510;BME280;5303;53.266;10.410;2023-03-04T01:13:36;101737.13;;;7.14;100.00
10510;BME280;5303;53.266;10.410;2023-03-04T01:16:02;101738.88;;;7.04;100.00
10510;BME280;5303;53.266;10.410;2023-03-04T01:18:28;101740.75;;;7.03;100.00
10510;BME280;5303;53.266;10.410;2023-03-04T01:20:54;101734.06;;;7.07;100.00
10510;BME280;5303;53.266;10.410;2023-03-04T01:23:19;101733.72;;;7.00;100.00
10510;BME280;5303;53.266;10.410;2023-03-04T01:25:44;101739.25;;;6.99;100.00
10510;BME280;5303;53.266;10.410;2023-03-04T01:28:09;101724.25;;;6.95;100.00
10510;BME280;5303;53.266;10.410;2023-03-04T01:30:35;101737.63;;;7.08;100.00
10510;BME280;5303;53.266;10.410;2023-03-04T01:33:00;101725.78;;;7.09;100.00
10510;BME280;5303;53.266;10.410;2023-03-04T01:35:26;101719.94;;;7.04;100.00
10510;BME280;5303;53.266;10.410;2023-03-04T01:37:51;101718.69;;;6.96;100.00
10510;BME280;5303;53.266;10.410;2023-03-04T01:40:17;101718.78;;;7.06;100.00
10510;BME280;5303;53.266;10.410;2023-03-04T01:42:42;101715.69;;;7.11;100.00
10510;BME280;5303;53.266;10.410;2023-03-04T01:45:15;101706.84;;;7.09;100.00
10510;BME280;5303;53.266;10.410;2023-03-04T01:47:43;101702.97;;;7.22;100.00
10510;BME280;5303;53.266;10.410;2023-03-04T01:50:26;101701.94;;;7.03;100.00
10510;BME280;5303;53.266;10.410;2023-03-04T01:52:52;101697.22;;;7.16;100.00
10510;BME280;5303;53.266;10.410;2023-03-04T01:55:19;101692.91;;;7.13;100.00
10510;BME280;5303;53.266;10.410;2023-03-04T01:57:46;101694.28;;;7.08;100.00
10510;BME280;5303;53.266;10.410;2023-03-04T02:02:44;101676.53;;;7.15;100.00
10510;BME280;5303;53.266;10.410;2023-03-04T02:05:09;101675.44;;;7.06;100.00
10510;BME280;5303;53.266;10.410;2023-03-04T02:07:35;101677.63;;;7.12;100.00
10510;BME280;5303;53.266;10.410;2023-03-04T02:10:01;101682.09;;;7.13;100.00
10510;BME280;5303;53.266;10.410;2023-03-04T02:12:26;101659.41;;;7.14;100.00
10510;BME280;5303;53.266;10.410;2023-03-04T02:14:52;101664.91;;;6.92;100.00
10510;BME280;5303;53.266;10.410;2023-03-04T02:17:23;101662.56;;;6.98;100.00
10510;BME280;5303;53.266;10.410;2023-03-04T02:19:57;101651.38;;;6.92;100.00
10510;BME280;5303;53.266;10.410;2023-03-04T02:22:26;101653.09;;;6.93;100.00
10510;BME280;5303;53.266;10.410;2023-03-04T02:24:55;101661.34;;;6.91;100.00
10510;BME280;5303;53.266;10.410;2023-03-04T02:27:21;101657.03;;;7.00;100.00
10510;BME280;5303;53.266;10.410;2023-03-04T02:29:47;101648.09;;;7.09;100.00
10510;BME280;5303;53.266;10.410;2023-03-04T02:32:13;101651.88;;;6.97;100.00
10510;BME280;5303;53.266;10.410;2023-03-04T02:34:45;101648.75;;;7.02;100.00
10510;BME280;5303;53.266;10.410;2023-03-04T02:37:11;101644.53;;;7.09;100.00
10510;BME280;5303;53.266;10.410;2023-03-04T02:39:42;101641.09;;;7.07;100.00
10510;BME280;5303;53.266;10.410;2023-03-04T02:42:08;101632.97;;;7.07;100.00
10510;BME280;5303;53.266;10.410;2023-03-04T02:44:36;101635.09;;;7.03;100.00
10510;BME280;5303;53.266;10.410;2023-03-04T02:47:04;101621.25;;;7.06;100.00
10510;BME280;5303;53.266;10.410;2023-03-04T02:49:32;101625.72;;;7.07;100.00
10510;BME280;5303;53.266;10.410;2023-03-04T02:54:24;101615.75;;;6.96;100.00
10510;BME280;5303;53.266;10.410;2023-03-04T02:56:54;101612.44;;;7.04;100.00
10510;BME280;5303;53.266;10.410;2023-03-04T02:59:21;101613.75;;;7.10;100.00
10510;BME280;5303;53.266;10.410;2023-03-04T03:01:47;101614.09;;;7.16;100.00
10510;BME280;5303;53.266;10.410;2023-03-04T03:04:13;101610.38;;;7.17;100.00
10510;BME280;5303;53.266;10.410;2023-03-04T03:06:39;101607.00;;;7.04;100.00
10510;BME280;5303;53.266;10.410;2023-03-04T03:09:05;101613.44;;;7.03;100.00
10510;BME280;5303;53.266;10.410;2023-03-04T03:11:30;101605.09;;;7.16;100.00
10510;BME280;5303;53.266;10.410;2023-03-04T03:13:56;101599.47;;;7.29;100.00
10510;BME280;5303;53.266;10.410;2023-03-04T03:16:21;101603.25;;;7.16;100.00
10510;BME280;5303;53.266;10.410;2023-03-04T03:18:46;101605.28;;;7.24;100.00
10510;BME280;5303;53.266;10.410;2023-03-04T03:21:12;101595.72;;;7.20;100.00
10510;BME280;5303;53.266;10.410;2023-03-04T03:23:37;101599.59;;;7.27;100.00
10510;BME280;5303;53.266;10.410;2023-03-04T03:26:03;101605.75;;;7.29;100.00
10510;BME280;5303;53.266;10.410;2023-03-04T03:28:30;101596.16;;;7.25;100.00
10510;BME280;5303;53.266;10.410;2023-03-04T03:30:55;101591.75;;;7.24;100.00
10510;BME280;5303;53.266;10.410;2023-03-04T03:33:21;101593.38;;;7.15;100.00
10510;BME280;5303;53.266;10.410;2023-03-04T03:35:46;101587.16;;;7.24;100.00
10510;BME280;5303;53.266;10.410;2023-03-04T03:38:12;101600.06;;;7.32;100.00
10510;BME280;5303;53.266;10.410;2023-03-04T03:40:37;101590.47;;;7.28;100.00
10510;BME280;5303;53.266;10.410;2023-03-04T03:43:02;101595.72;;;7.20;100.00
10510;BME280;5303;53.266;10.410;2023-03-04T03:45:47;101598.28;;;7.21;100.00
10510;BME280;5303;53.266;10.410;2023-03-04T03:48:12;101602.16;;;7.29;100.00
10510;BME280;5303;53.266;10.410;2023-03-04T03:50:37;101602.66;;;7.13;100.00
10510;BME280;5303;53.266;10.410;2023-03-04T03:53:03;101591.63;;;7.26;100.00
10510;BME280;5303;53.266;10.410;2023-03-04T03:55:29;101597.69;;;7.18;100.00
10510;BME280;5303;53.266;10.410;2023-03-04T03:57:54;101588.38;;;7.11;100.00
10510;BME280;5303;53.266;10.410;2023-03-04T04:00:19;101588.84;;;7.16;100.00
10510;BME280;5303;53.266;10.410;2023-03-04T04:02:45;101592.47;;;7.05;100.00
10510;BME280;5303;53.266;10.410;2023-03-04T04:05:11;101588.50;;;7.09;100.00
10510;BME280;5303;53.266;10.410;2023-03-04T04:07:37;101593.25;;;6.96;100.00
10510;BME280;5303;53.266;10.410;2023-03-04T04:10:03;101582.03;;;7.00;100.00
10510;BME280;5303;53.266;10.410;2023-03-04T04:12:28;101595.34;;;6.92;100.00
10510;BME280;5303;53.266;10.410;2023-03-04T04:14:54;101588.69;;;6.96;100.00
10510;BME280;5303;53.266;10.410;2023-03-04T04:17:19;101583.81;;;6.90;100.00
10510;BME280;5303;53.266;10.410;2023-03-04T04:19:44;101581.09;;;6.90;100.00
10510;BME280;5303;53.266;10.410;2023-03-04T04:22:16;101574.94;;;6.88;100.00
10510;BME280;5303;53.266;10.410;2023-03-04T04:24:42;101578.44;;;6.79;100.00
10510;BME280;5303;53.266;10.410;2023-03-04T04:27:07;101578.19;;;6.82;100.00
10510;BME280;5303;53.266;10.410;2023-03-04T04:29:32;101580.63;;;6.85;100.00
10510;BME280;5303;53.266;10.410;2023-03-04T04:31:58;101580.94;;;6.71;100.00
10510;BME280;5303;53.266;10.410;2023-03-04T04:34:24;101580.03;;;6.82;100.00
10510;BME280;5303;53.266;10.410;2023-03-04T04:36:50;101577.09;;;6.73;100.00
10510;BME280;5303;53.266;10.410;2023-03-04T04:39:15;101576.13;;;6.74;100.00
10510;BME280;5303;53.266;10.410;2023-03-04T04:41:41;101578.94;;;6.52;100.00
10510;BME280;5303;53.266;10.410;2023-03-04T04:44:08;101576.75;;;6.67;100.00
10510;BME280;5303;53.266;10.410;2023-03-04T04:46:33;101574.63;;;6.49;100.00
10510;BME280;5303;53.266;10.410;2023-03-04T04:48:59;101573.84;;;6.59;100.00
10510;BME280;5303;53.266;10.410;2023-03-04T04:51:25;101565.59;;;6.60;100.00
10510;BME280;5303;53.266;10.410;2023-03-04T04:53:50;101558.63;;;6.79;100.00
10510;BME280;5303;53.266;10.410;2023-03-04T04:56:21;101559.97;;;6.84;100.00
10510;BME280;5303;53.266;10.410;2023-03-04T04:58:47;101559.41;;;6.69;100.00
10510;BME280;5303;53.266;10.410;2023-03-04T05:01:13;101558.03;;;6.75;100.00
10510;BME280;5303;53.266;10.410;2023-03-04T05:03:39;101554.66;;;6.83;100.00
10510;BME280;5303;53.266;10.410;2023-03-04T05:06:06;101546.47;;;6.73;100.00
10510;BME280;5303;53.266;10.410;2023-03-04T05:08:32;101546.72;;;6.70;100.00
10510;BME280;5303;53.266;10.410;2023-03-04T05:10:58;101548.91;;;6.76;100.00
10510;BME280;5303;53.266;10.410;2023-03-04T05:13:23;101540.06;;;6.74;100.00
10510;BME280;5303;53.266;10.410;2023-03-04T05:15:53;101561.44;;;6.77;100.00
10510;BME280;5303;53.266;10.410;2023-03-04T05:18:19;101548.16;;;6.74;100.00
10510;BME280;5303;53.266;10.410;2023-03-04T05:20:49;101550.69;;;6.66;100.00
10510;BME280;5303;53.266;10.410;2023-03-04T05:23:15;101546.72;;;6.70;100.00
10510;BME280;5303;53.266;10.410;2023-03-04T05:25:40;101564.88;;;6.58;100.00
10510;BME280;5303;53.266;10.410;2023-03-04T05:28:05;101552.34;;;6.78;100.00
10510;BME280;5303;53.266;10.410;2023-03-04T05:30:36;101560.56;;;6.88;100.00
10510;BME280;5303;53.266;10.410;2023-03-04T05:33:01;101557.56;;;6.70;100.00
10510;BME280;5303;53.266;10.410;2023-03-04T05:35:27;101548.06;;;6.75;100.00
10510;BME280;5303;53.266;10.410;2023-03-04T05:37:52;101540.06;;;6.74;100.00
10510;BME280;5303;53.266;10.410;2023-03-04T05:40:17;101540.94;;;6.74;100.00
10510;BME280;5303;53.266;10.410;2023-03-04T05:42:43;101541.78;;;6.75;100.00
10510;BME280;5303;53.266;10.410;2023-03-04T05:45:08;101551.69;;;6.65;100.00
10510;BME280;5303;53.266;10.410;2023-03-04T05:47:33;101548.91;;;6.76;100.00
10510;BME280;5303;53.266;10.410;2023-03-04T05:49:59;101544.75;;;6.72;100.00
10510;BME280;5303;53.266;10.410;2023-03-04T05:52:24;101558.88;;;6.75;100.00
10510;BME280;5303;53.266;10.410;2023-03-04T05:54:49;101568.88;;;6.75;100.00
10510;BME280;5303;53.266;10.410;2023-03-04T05:57:14;101551.69;;;6.65;100.00
10510;BME280;5303;53.266;10.410;2023-03-04T05:59:40;101565.47;;;6.62;100.00
10510;BME280;5303;53.266;10.410;2023-03-04T06:02:05;101558.06;;;6.64;100.00
10510;BME280;5303;53.266;10.410;2023-03-04T06:04:30;101562.78;;;6.62;100.00
10510;BME280;5303;53.266;10.410;2023-03-04T06:06:55;101558.50;;;6.48;100.00
10510;BME280;5303;53.266;10.410;2023-03-04T06:09:21;101560.69;;;6.54;100.00
10510;BME280;5303;53.266;10.410;2023-03-04T06:11:46;101556.38;;;6.51;100.00
10510;BME280;5303;53.266;10.410;2023-03-04T06:14:11;101562.06;;;6.48;100.00
10510;BME280;5303;53.266;10.410;2023-03-04T06:16:37;101560.50;;;6.46;100.00
10510;BME280;5303;53.266;10.410;2023-03-04T06:19:02;101565.16;;;6.44;100.00
10510;BME280;5303;53.266;10.410;2023-03-04T06:21:27;101565.25;;;6.53;100.00
10510;BME280;5303;53.266;10.410;2023-03-04T06:23:52;101558.84;;;6.54;100.00
10510;BME280;5303;53.266;10.410;2023-03-04T06:26:18;101560.19;;;6.60;100.00
10510;BME280;5303;53.266;10.410;2023-03-04T06:28:43;101564.75;;;6.60;100.00
10510;BME280;5303;53.266;10.410;2023-03-04T06:31:09;101560.50;;;6.46;100.00
10510;BME280;5303;53.266;10.410;2023-03-04T06:33:35;101566.53;;;6.38;100.00
10510;BME280;5303;53.266;10.410;2023-03-04T06:36:00;101564.41;;;6.42;100.00
10510;BME280;5303;53.266;10.410;2023-03-04T06:38:26;101569.41;;;6.58;100.00
10510;BME280;5303;53.266;10.410;2023-03-04T06:40:51;101570.75;;;6.63;100.00
10510;BME280;5303;53.266;10.410;2023-03-04T06:43:17;101564.47;;;6.63;100.00
10510;BME280;5303;53.266;10.410;2023-03-04T06:45:43;101580.72;;;6.63;100.00
10510;BME280;5303;53.266;10.410;2023-03-04T06:48:09;101584.16;;;6.65;100.00
10510;BME280;5303;53.266;10.410;2023-03-04T06:50:34;101577.28;;;6.61;100.00
10510;BME280;5303;53.266;10.410;2023-03-04T06:52:59;101576.47;;;6.49;100.00
10510;BME280;5303;53.266;10.410;2023-03-04T06:55:24;101586.25;;;6.61;100.00
10510;BME280;5303;53.266;10.410;2023-03-04T06:57:50;101581.91;;;6.70;100.00
10510;BME280;5303;53.266;10.410;2023-03-04T07:00:16;101583.78;;;6.69;100.00
10510;BME280;5303;53.266;10.410;2023-03-04T07:02:41;101581.91;;;6.70;100.00
10510;BME280;5303;53.266;10.410;2023-03-04T07:05:08;101585.41;;;6.61;100.00
10510;BME280;5303;53.266;10.410;2023-03-04T07:07:34;101587.84;;;6.64;100.00
10510;BME280;5303;53.266;10.410;2023-03-04T07:09:59;101588.94;;;6.72;100.00
10510;BME280;5303;53.266;10.410;2023-03-04T07:12:24;101592.88;;;6.68;100.00
10510;BME280;5303;53.266;10.410;2023-03-04T07:14:50;101588.59;;;6.66;100.00
10510;BME280;5303;53.266;10.410;2023-03-04T07:17:15;101580.28;;;6.79;100.00
10510;BME280;5303;53.266;10.410;2023-03-04T07:19:41;101588.59;;;6.66;100.00
10510;BME280;5303;53.266;10.410;2023-03-04T07:22:06;101599.34;;;6.77;100.00
10510;BME280;5303;53.266;10.410;2023-03-04T07:24:31;101583.91;;;6.68;100.00
10510;BME280;5303;53.266;10.410;2023-03-04T07:26:57;101581.63;;;6.84;100.00
10510;BME280;5303;53.266;10.410;2023-03-04T07:29:22;101584.84;;;6.78;100.00
10510;BME280;5303;53.266;10.410;2023-03-04T07:31:47;101590.88;;;6.82;100.00
10510;BME280;5303;53.266;10.410;2023-03-04T07:34:13;101591.22;;;6.77;100.00
10510;BME280;5303;53.266;10.410;2023-03-04T07:36:38;101593.13;;;6.97;100.00
10510;BME280;5303;53.266;10.410;2023-03-04T07:39:04;101599.41;;;6.98;100.00
10510;BME280;5303;53.266;10.410;2023-03-04T07:41:30;101592.97;;;6.78;100.00
10510;BME280;5303;53.266;10.410;2023-03-04T07:43:57;101597.22;;;6.92;100.00
10510;BME280;5303;53.266;10.410;2023-03-04T07:46:23;101603.22;;;6.95;100.00
10510;BME280;5303;53.266;10.410;2023-03-04T07:48:49;101606.00;;;6.84;100.00
10510;BME280;5303;53.266;10.410;2023-03-04T07:51:19;101595.34;;;6.71;100.00
10510;BME280;5303;53.266;10.410;2023-03-04T07:53:47;101591.97;;;6.79;100.00
10510;BME280;5303;53.266;10.410;2023-03-04T07:56:16;101596.47;;;6.58;100.00
10510;BME280;5303;53.266;10.410;2023-03-04T07:58:42;101591.81;;;6.60;100.00
10510;BME280;5303;53.266;10.410;2023-03-04T08:01:12;101591.31;;;6.54;100.00
10510;BME280;5303;53.266;10.410;2023-03-04T08:03:38;101592.47;;;6.52;100.00
10510;BME280;5303;53.266;10.410;2023-03-04T08:06:05;101596.88;;;6.53;100.00
10510;BME280;5303;53.266;10.410;2023-03-04T08:08:31;101603.31;;;6.73;100.00
10510;BME280;5303;53.266;10.410;2023-03-04T08:10:56;101586.53;;;6.58;100.00
10510;BME280;5303;53.266;10.410;2023-03-04T08:13:21;101604.84;;;6.66;100.00
10510;BME280;5303;53.266;10.410;2023-03-04T08:15:46;101612.09;;;6.65;100.00
10510;BME280;5303;53.266;10.410;2023-03-04T08:18:12;101611.00;;;6.57;100.00
10510;BME280;5303;53.266;10.410;2023-03-04T08:20:40;101618.28;;;6.56;100.00
10510;BME280;5303;53.266;10.410;2023-03-04T08:23:05;101609.06;;;6.47;100.00
10510;BME280;5303;53.266;10.410;2023-03-04T08:25:31;101610.91;;;6.58;100.00
10510;BME280;5303;53.266;10.410;2023-03-04T08:27:57;101606.44;;;6.57;100.00
10510;BME280;5303;53.266;10.410;2023-03-04T08:30:23;101614.72;;;6.56;100.00
10510;BME280;5303;53.266;10.410;2023-03-04T08:32:48;101609.75;;;6.61;100.00
10510;BME280;5303;53.266;10.410;2023-03-04T08:35:13;101611.94;;;6.67;100.00
10510;BME280;5303;53.266;10.410;2023-03-04T08:37:39;101605.56;;;6.68;100.00
10510;BME280;5303;53.266;10.410;2023-03-04T08:40:05;101610.59;;;6.72;100.00
10510;BME280;5303;53.266;10.410;2023-03-04T08:42:30;101614.22;;;6.62;100.00
10510;BME280;5303;53.266;10.410;2023-03-04T08:44:55;101616.09;;;6.82;100.00
10510;BME280;5303;53.266;10.410;2023-03-04T08:47:20;101626.69;;;6.74;100.00
10510;BME280;5303;53.266;10.410;2023-03-04T08:49:46;101621.16;;;6.75;100.00
10510;BME280;5303;53.266;10.410;2023-03-04T08:52:11;101632.41;;;6.71;100.00
10510;BME280;5303;53.266;10.410;2023-03-04T08:54:36;101618.19;;;6.79;100.00
10510;BME280;5303;53.266;10.410;2023-03-04T08:57:01;101618.03;;;6.48;100.00
10510;BME280;5303;53.266;10.410;2023-03-04T08:59:28;101626.03;;;6.49;100.00
10510;BME280;5303;53.266;10.410;2023-03-04T09:01:53;101624.28;;;6.71;100.00
10510;BME280;5303;53.266;10.410;2023-03-04T09:04:18;101629.72;;;6.48;100.00
10510;BME280;5303;53.266;10.410;2023-03-04T09:06:44;101619.13;;;6.57;100.00
10510;BME280;5303;53.266;10.410;2023-03-04T09:09:09;101623.44;;;6.59;100.00
10510;BME280;5303;53.266;10.410;2023-03-04T09:11:34;101624.22;;;6.82;100.00
10510;BME280;5303;53.266;10.410;2023-03-04T09:14:00;101628.19;;;6.78;100.00
10510;BME280;5303;53.266;10.410;2023-03-04T09:16:25;101613.63;;;6.79;100.00
10510;BME280;5303;53.266;10.410;2023-03-04T09:18:50;101621.56;;;6.71;100.00
10510;BME280;5303;53.266;10.410;2023-03-04T09:21:15;101631.06;;;6.86;100.00
10510;BME280;5303;53.266;10.410;2023-03-04T09:23:41;101636.13;;;6.91;100.00
10510;BME280;5303;53.266;10.410;2023-03-04T09:26:20;101617.63;;;6.64;100.00
10510;BME280;5303;53.266;10.410;2023-03-04T09:28:49;101633.09;;;6.73;100.00
10510;BME280;5303;53.266;10.410;2023-03-04T09:31:14;101619.19;;;6.78;100.00
10510;BME280;5303;53.266;10.410;2023-03-04T09:33:39;101623.28;;;6.61;100.00
10510;BME280;5303;53.266;10.410;2023-03-04T09:36:08;101628.44;;;6.64;100.00
10510;BME280;5303;53.266;10.410;2023-03-04T09:38:34;101620.75;;;6.48;100.00
10510;BME280;5303;53.266;10.410;2023-03-04T09:41:03;101627.69;;;6.73;100.00
10510;BME280;5303;53.266;10.410;2023-03-04T09:43:29;101627.84;;;6.60;100.00
10510;BME280;5303;53.266;10.410;2023-03-04T09:45:58;101624.28;;;6.71;100.00
10510;BME280;5303;53.266;10.410;2023-03-04T09:48:27;101636.88;;;6.49;100.00
10510;BME280;5303;53.266;10.410;2023-03-04T09:54:09;101633.88;;;6.64;100.00
10510;BME280;5303;53.266;10.410;2023-03-04T09:56:37;101633.97;;;6.73;100.00
10510;BME280;5303;53.266;10.410;2023-03-04T09:59:26;101640.88;;;6.66;100.00
10510;BME280;5303;53.266;10.410;2023-03-04T10:01:55;101636.13;;;6.91;100.00
10510;BME280;5303;53.266;10.410;2023-03-04T10:04:43;101631.84;;;6.77;100.00
10510;BME280;5303;53.266;10.410;2023-03-04T10:07:18;101628.97;;;6.90;100.00
10510;BME280;5303;53.266;10.410;2023-03-04T10:09:48;101622.69;;;6.89;100.00
10510;BME280;5303;53.266;10.410;2023-03-04T10:12:19;101617.75;;;6.94;100.00
10510;BME280;5303;53.266;10.410;2023-03-04T10:14:51;101631.22;;;6.85;100.00
10510;BME280;5303;53.266;10.410;2023-03-04T10:19:55;101615.50;;;6.99;100.00
10510;BME280;5303;53.266;10.410;2023-03-04T10:24:57;101639.19;;;6.97;100.00
10510;BME280;5303;53.266;10.410;2023-03-04T10:27:22;101637.97;;;6.90;100.00
10510;BME280;5303;53.266;10.410;2023-03-04T10:29:49;101620.06;;;6.99;100.00
10510;BME280;5303;53.266;10.410;2023-03-04T10:32:19;101629.69;;;7.03;100.00
10510;BME280;5303;53.266;10.410;2023-03-04T10:34:45;101624.94;;;6.84;100.00
10510;BME280;5303;53.266;10.410;2023-03-04T10:37:10;101621.75;;;7.11;100.00
10510;BME280;5303;53.266;10.410;2023-03-04T10:39:40;101631.13;;;7.07;100.00
10510;BME280;5303;53.266;10.410;2023-03-04T10:42:22;101641.13;;;6.95;100.00
10510;BME280;5303;53.266;10.410;2023-03-04T10:44:55;101630.72;;;6.91;100.00
10510;BME280;5303;53.266;10.410;2023-03-04T10:47:26;101627.41;;;6.87;100.00
10510;BME280;5303;53.266;10.410;2023-03-04T10:49:57;101619.44;;;7.07;100.00
10510;BME280;5303;53.266;10.410;2023-03-04T10:52:28;101627.59;;;6.95;100.00
10510;BME280;5303;53.266;10.410;2023-03-04T10:54:59;101631.41;;;6.93;100.00
10510;BME280;5303;53.266;10.410;2023-03-04T10:57:39;101631.06;;;6.97;100.00
10510;BME280;5303;53.266;10.410;2023-03-04T11:02:47;101616.38;;;7.00;100.00
10510;BME280;5303;53.266;10.410;2023-03-04T11:05:20;101622.75;;;7.10;100.00
10510;BME280;5303;53.266;10.410;2023-03-04T11:07:51;101631.38;;;7.04;100.00
10510;BME280;5303;53.266;10.410;2023-03-04T11:12:47;101627.75;;;7.15;100.00
10510;BME280;5303;53.266;10.410;2023-03-04T11:15:19;101625.19;;;7.13;100.00
10510;BME280;5303;53.266;10.410;2023-03-04T11:17:53;101623.84;;;7.29;100.00
10510;BME280;5303;53.266;10.410;2023-03-04T11:20:35;101623.53;;;7.43;100.00
10510;BME280;5303;53.266;10.410;2023-03-04T11:23:18;101617.66;;;7.17;100.00
10510;BME280;5303;53.266;10.410;2023-03-04T11:25:54;101611.72;;;7.23;100.00
10510;BME280;5303;53.266;10.410;2023-03-04T11:28:26;101603.22;;;7.37;100.00
10510;BME280;5303;53.266;10.410;2023-03-04T11:30:55;101603.38;;;7.36;100.00
10510;BME280;5303;53.266;10.410;2023-03-04T11:33:46;101612.16;;;7.28;100.00
10510;BME280;5303;53.266;10.410;2023-03-04T11:36:39;101620.28;;;7.07;100.00
10510;BME280;5303;53.266;10.410;2023-03-04T11:39:36;101618.22;;;6.99;100.00
10510;BME280;5303;53.266;10.410;2023-03-04T11:44:49;101615.44;;;6.90;100.00
10510;BME280;5303;53.266;10.410;2023-03-04T11:47:25;101621.91;;;6.98;100.00
10510;BME280;5303;53.266;10.410;2023-03-04T11:50:08;101618.22;;;6.99;100.00
10510;BME280;5303;53.266;10.410;2023-03-04T11:55:45;101616.16;;;6.92;100.00
10510;BME280;5303;53.266;10.410;2023-03-04T11:58:37;101606.22;;;7.13;100.00
10510;BME280;5303;53.266;10.410;2023-03-04T12:01:54;101613.69;;;7.21;100.00
10510;BME280;5303;53.266;10.410;2023-03-04T12:07:21;101596.53;;;7.41;100.00
10510;BME280;5303;53.266;10.410;2023-03-04T12:10:05;101599.94;;;7.34;99.77
10510;BME280;5303;53.266;10.410;2023-03-04T12:18:20;101591.06;;;7.53;100.00
10510;BME280;5303;53.266;10.410;2023-03-04T12:21:03;101599.47;;;7.50;100.00
10510;BME280;5303;53.266;10.410;2023-03-04T12:35:13;101591.78;;;7.55;99.48
10510;BME280;5303;53.266;10.410;2023-03-04T12:38:01;101565.22;;;7.49;100.00
10510;BME280;5303;53.266;10.410;2023-03-04T12:43:07;101568.78;;;7.49;100.00
10510;BME280;5303;53.266;10.410;2023-03-04T12:45:52;101565.00;;;7.61;100.00
10510;BME280;5303;53.266;10.410;2023-03-04T12:48:31;101556.94;;;7.50;100.00
10510;BME280;5303;53.266;10.410;2023-03-04T12:51:06;101581.00;;;7.64;100.00
10510;BME280;5303;53.266;10.410;2023-03-04T12:59:02;101557.06;;;7.79;100.00
10510;BME280;5303;53.266;10.410;2023-03-04T13:01:37;101567.06;;;7.79;100.00
10510;BME280;5303;53.266;10.410;2023-03-04T13:09:31;101548.47;;;7.64;100.00
10510;BME280;5303;53.266;10.410;2023-03-04T13:12:10;101542.53;;;7.80;100.00
10510;BME280;5303;53.266;10.410;2023-03-04T13:14:38;101540.78;;;7.79;100.00
10510;BME280;5303;53.266;10.410;2023-03-04T13:18:28;101531.56;;;7.91;100.00
10510;BME280;5303;53.266;10.410;2023-03-04T13:25:34;101541.28;;;7.63;100.00
10510;BME280;5303;53.266;10.410;2023-03-04T13:35:56;101538.94;;;7.80;100.00
10510;BME280;5303;53.266;10.410;2023-03-04T13:43:41;101547.09;;;7.49;100.00
10510;BME280;5303;53.266;10.410;2023-03-04T13:51:35;101545.09;;;7.51;100.00
10510;BME280;5303;53.266;10.410;2023-03-04T14:04:25;101546.41;;;7.26;100.00
10510;BME280;5303;53.266;10.410;2023-03-04T14:06:54;101551.50;;;7.19;100.00
10510;BME280;5303;53.266;10.410;2023-03-04T14:09:22;101551.09;;;7.24;100.00
10510;BME280;5303;53.266;10.410;2023-03-04T14:11:50;101542.53;;;7.29;100.00
10510;BME280;5303;53.266;10.410;2023-03-04T14:14:22;101527.94;;;7.41;100.00
10510;BME280;5303;53.266;10.410;2023-03-04T14:16:55;101528.00;;;7.60;100.00
10510;BME280;5303;53.266;10.410;2023-03-04T14:19:25;101534.31;;;7.61;97.78
10510;BME280;5303;53.266;10.410;2023-03-04T14:21:52;101532.63;;;7.69;95.81
10510;BME280;5303;53.266;10.410;2023-03-04T14:24:19;101540.16;;;7.66;92.67
10510;BME280;5303;53.266;10.410;2023-03-04T14:26:45;101544.91;;;7.74;91.60